createdAt,value
2019-05-30T00:00:18.786Z,12.9
2019-05-30T00:05:38.806Z,12.9
2019-05-30T00:15:48.937Z,12.7
2019-05-30T00:20:54.680Z,12.6
2019-05-30T00:25:59.187Z,12.4
2019-05-30T00:31:09.103Z,12.3
2019-05-30T00:36:18.884Z,12.2
2019-05-30T00:41:23.887Z,12.1
2019-05-30T00:46:28.924Z,12.1
2019-05-30T00:51:33.865Z,12.1
2019-05-30T00:56:38.859Z,12
2019-05-30T01:01:58.927Z,12.1
2019-05-30T01:07:13.910Z,11.9
2019-05-30T01:12:23.878Z,11.7
2019-05-30T01:17:33.853Z,11.7
2019-05-30T01:22:38.898Z,11.7
2019-05-30T01:27:43.842Z,11.7
2019-05-30T01:32:48.892Z,11.6
2019-05-30T01:37:53.882Z,11.6
2019-05-30T01:43:04.114Z,11.6
2019-05-30T01:48:14.087Z,11.6
2019-05-30T01:53:18.864Z,11.5
2019-05-30T01:58:23.889Z,11.6
2019-05-30T02:03:28.874Z,11.8
2019-05-30T02:08:33.835Z,11.8
2019-05-30T02:13:43.854Z,11.8
2019-05-30T02:18:54.022Z,11.7
2019-05-30T02:23:59.770Z,11.7
2019-05-30T02:29:04.203Z,11.5
2019-05-30T02:34:10.059Z,11.5
2019-05-30T02:39:14.044Z,11.6
2019-05-30T02:44:23.854Z,11.3
2019-05-30T02:49:33.850Z,11.4
2019-05-30T02:54:38.858Z,11.3
2019-05-30T02:59:43.835Z,10.9
2019-05-30T03:04:48.822Z,10.9
2019-05-30T03:14:48.976Z,10.5
2019-05-30T03:19:54.028Z,10.7
2019-05-30T03:24:59.053Z,10.9
2019-05-30T03:30:17.804Z,10.9
2019-05-30T03:31:22.791Z,10.9
2019-05-30T03:33:39.906Z,10.9
2019-05-30T03:35:28.152Z,10.9
2019-05-30T03:36:31.941Z,10.9
2019-05-30T03:40:25.650Z,11.3
2019-05-30T03:45:29.049Z,11.7
2019-05-30T03:50:33.999Z,12
2019-05-30T03:55:38.993Z,12.4
2019-05-30T04:00:51.040Z,13.3
2019-05-30T04:05:59.040Z,13.6
2019-05-30T04:11:04.098Z,14
2019-05-30T04:16:10.860Z,13.6
2019-05-30T04:21:16.082Z,13.7
2019-05-30T04:26:18.981Z,14.1
2019-05-30T04:31:29.018Z,14.3
2019-05-30T04:36:39.031Z,14.9
2019-05-30T04:41:43.981Z,15.4
2019-05-30T04:46:49.259Z,15.4
2019-05-30T04:51:54.005Z,16.1
2019-05-30T04:56:59.001Z,16.8
2019-05-30T05:02:04.004Z,16.9
2019-05-30T05:07:15.550Z,17.3
2019-05-30T05:12:23.965Z,17.7
2019-05-30T05:17:29.117Z,18
2019-05-30T05:27:29.127Z,19
2019-05-30T05:32:34.116Z,19.3
2019-05-30T05:37:39.145Z,19.7
2019-05-30T05:42:49.108Z,19.5
2019-05-30T05:47:59.128Z,19.5
2019-05-30T05:53:04.189Z,18.8
2019-05-30T05:58:09.131Z,18.6
2019-05-30T06:03:14.092Z,19.2
2019-05-30T06:08:19.472Z,20.2
2019-05-30T06:13:29.138Z,20.5
2019-05-30T06:18:39.047Z,19.9
2019-05-30T06:23:45.678Z,19.9
2019-05-30T06:28:49.271Z,20.2
2019-05-30T06:33:54.086Z,21.1
2019-05-30T06:38:59.150Z,21.8
2019-05-30T06:44:09.079Z,22.3
2019-05-30T06:49:20.498Z,22
2019-05-30T06:54:24.710Z,21.6
2019-05-30T06:59:29.738Z,21.8
2019-05-30T07:04:50.012Z,22.4
2019-05-30T07:05:37.853Z,22.4
2019-05-30T07:09:39.047Z,22.6
2019-05-30T07:14:44.158Z,22.9
2019-05-30T07:19:49.077Z,23
2019-05-30T07:24:54.071Z,23.9
2019-05-30T07:29:59.065Z,23
2019-05-30T07:35:07.058Z,22.9
2019-05-30T07:40:09.146Z,22.9
2019-05-30T07:45:14.052Z,23.5
2019-05-30T07:50:19.100Z,23.4
2019-05-30T07:55:29.130Z,22.9
2019-05-30T08:00:39.071Z,23.6
2019-05-30T08:05:44.025Z,23.7
2019-05-30T08:10:49.051Z,24.1
2019-05-30T08:15:54.129Z,24.2
2019-05-30T08:20:59.060Z,23.4
2019-05-30T08:26:09.263Z,23.8
2019-05-30T08:31:19.110Z,23.9
2019-05-30T08:36:24.061Z,24.4
2019-05-30T08:41:29.185Z,24.4
2019-05-30T08:46:34.172Z,23.9
2019-05-30T08:56:36.556Z,24.7
2019-05-30T09:01:42.069Z,24
2019-05-30T09:06:46.280Z,22.7
2019-05-30T09:11:56.340Z,23.3
2019-05-30T09:17:06.362Z,23.8
2019-05-30T09:22:11.314Z,23.1
2019-05-30T09:27:16.295Z,23.1
2019-05-30T09:32:21.338Z,23.3
2019-05-30T09:37:26.309Z,24
2019-05-30T09:42:36.286Z,23.3
2019-05-30T09:47:47.107Z,24.2
2019-05-30T09:52:51.465Z,24.2
2019-05-30T09:57:56.295Z,23.8
2019-05-30T10:03:01.270Z,24
2019-05-30T10:08:06.292Z,24.3
2019-05-30T10:13:16.292Z,23.3
2019-05-30T10:18:26.352Z,23.9
2019-05-30T10:23:31.985Z,24.5
2019-05-30T10:33:31.613Z,24.2
2019-05-30T10:38:36.413Z,24.4
2019-05-30T10:43:41.414Z,24.6
2019-05-30T10:48:52.649Z,24.8
2019-05-30T10:54:01.467Z,24.8
2019-05-30T10:59:06.435Z,24.3
2019-05-30T11:04:11.412Z,23.8
2019-05-30T11:09:16.495Z,23.5
2019-05-30T11:14:21.445Z,24
2019-05-30T11:19:31.476Z,24.5
2019-05-30T11:24:41.419Z,24.5
2019-05-30T11:29:46.442Z,25.5
2019-05-30T11:34:51.417Z,24.8
2019-05-30T11:39:57.287Z,24.6
2019-05-30T15:52:53.086Z,25.3
2019-05-30T15:57:57.720Z,25
2019-05-30T16:03:02.715Z,24.9
2019-05-30T16:08:12.700Z,24.7
2019-05-30T16:13:22.650Z,24.2
2019-05-30T16:18:27.697Z,24.1
2019-05-30T16:23:32.661Z,24.6
2019-05-30T16:28:37.602Z,24.6
2019-05-30T16:33:42.672Z,24.2
2019-05-30T16:38:52.793Z,23.8
2019-05-30T16:44:02.683Z,24
2019-05-30T16:49:07.664Z,24
2019-05-30T16:54:12.653Z,24.1
2019-05-30T16:59:18.584Z,24.2
2019-05-30T17:04:22.992Z,24.5
2019-05-30T17:09:27.729Z,23.6
2019-05-30T17:14:37.675Z,22.9
2019-05-30T17:19:47.646Z,22.7
2019-05-30T17:24:54.531Z,22.5
2019-05-30T17:29:57.652Z,22.3
2019-05-30T17:35:02.593Z,22.4
2019-05-30T17:40:07.740Z,22.4
2019-05-30T17:45:18.913Z,22.4
2019-05-30T17:50:27.961Z,22.3
2019-05-30T17:55:32.653Z,22
2019-05-30T18:00:37.587Z,21.9
2019-05-30T18:05:42.697Z,21.9
2019-05-30T18:10:53.516Z,21.5
2019-05-30T18:15:57.619Z,21.5
2019-05-30T18:21:07.597Z,21.4
2019-05-30T18:26:12.618Z,21.4
2019-05-30T18:31:17.590Z,21.4
2019-05-30T18:36:22.624Z,21.3
2019-05-30T18:41:28.695Z,21.2
2019-05-30T18:46:38.605Z,21.1
2019-05-30T18:51:47.816Z,21.2
2019-05-30T18:56:52.626Z,21.1
2019-05-30T19:01:57.669Z,21.1
2019-05-30T19:11:57.783Z,21.2
2019-05-30T19:17:02.827Z,21.1
2019-05-30T19:22:07.861Z,21
2019-05-30T19:27:17.832Z,20.9
2019-05-30T19:32:28.567Z,20.8
2019-05-30T19:37:33.169Z,20.8
2019-05-30T19:47:32.994Z,20.7
2019-05-30T19:57:33.469Z,20.6
2019-05-30T20:02:38.443Z,20.5
2019-05-30T20:07:43.206Z,20.5
2019-05-30T20:12:53.150Z,20.3
2019-05-30T20:18:03.177Z,20.4
2019-05-30T20:23:08.154Z,20.4
2019-05-30T20:28:13.127Z,20.3
2019-05-30T20:33:18.175Z,20.1
2019-05-30T20:38:23.131Z,20
2019-05-30T20:48:24.026Z,19.8
2019-05-30T20:53:28.855Z,19.8
2019-05-30T20:58:33.837Z,19.6
2019-05-30T21:03:44.097Z,19.5
2019-05-30T21:13:49.015Z,19.5
2019-05-30T21:18:54.017Z,19.6
2019-05-30T21:23:59.307Z,19.4
2019-05-30T21:29:09.109Z,19.4
2019-05-30T21:34:19.151Z,19.1
2019-05-30T21:39:24.056Z,19.2
2019-05-30T21:44:29.035Z,19.2
2019-05-30T21:49:34.006Z,19.1
2019-05-30T21:59:34.158Z,19.7
2019-05-30T22:09:34.274Z,19.2
2019-05-30T22:14:39.304Z,19
2019-05-30T22:19:44.346Z,18.9
2019-05-30T22:24:54.306Z,18.7
2019-05-30T22:30:04.302Z,19
2019-05-30T22:35:09.388Z,18.9
2019-05-30T22:40:14.352Z,18.8
2019-05-30T22:45:19.292Z,19
2019-05-30T22:50:24.315Z,18.7
2019-05-30T22:55:34.503Z,18.4
2019-05-30T23:00:44.291Z,18.4
2019-05-30T23:05:49.403Z,18.3
2019-05-30T23:10:54.367Z,18.4
2019-05-30T23:15:59.288Z,18.4
2019-05-30T23:21:04.272Z,18.5
2019-05-30T23:26:14.289Z,18.5
2019-05-30T23:36:19.531Z,18.4
2019-05-30T23:41:24.531Z,18.5
2019-05-30T23:46:29.578Z,18.2
2019-05-30T23:51:39.534Z,18.4
2019-05-30T23:56:50.503Z,18.5
